Time;durP1;ratioP1;P1;durP2;ratioP2;P2;SDS_P1;SDS_P2;PMS_P1;PMS_P2;Temp;Humidity;BMP_temperature;BMP_pressure;BME280_temperature;BME280_humidity;BME280_pressure;Samples;Min_cycle;Max_cycle;Signal;HPM_P1;HPM_P2
2022/12/19 00:00:27;;;;;;;7.40;2.70;;;;;;;;;;4898271;29;20115;-94
2022/12/19 00:02:53;;;;;;;8.00;2.78;;;;;;;;;;4902894;29;20064;-94
2022/12/19 00:05:18;;;;;;;7.85;2.83;;;;;;;;;;4899652;29;20032;-94
2022/12/19 00:07:46;;;;;;;7.40;2.90;;;;;;;;;;4892699;29;20066;-94
2022/12/19 00:10:12;;;;;;;7.82;2.60;;;;;;;;;;4915518;29;20043;-94
2022/12/19 00:12:37;;;;;;;6.93;2.47;;;;;;;;;;4896432;29;20024;-94
2022/12/19 00:15:02;;;;;;;7.25;2.92;;;;;;;;;;4896875;29;20040;-93
2022/12/19 00:17:28;;;;;;;7.60;2.85;;;;;;;;;;4895917;29;20091;-93
2022/12/19 00:19:53;;;;;;;6.53;2.22;;;;;;;;;;4895450;29;20114;-93
2022/12/19 00:22:18;;;;;;;7.00;2.33;;;;;;;;;;4894818;29;20040;-94
2022/12/19 00:24:43;;;;;;;6.20;2.20;;;;;;;;;;4894741;29;20021;-94
2022/12/19 00:27:09;;;;;;;6.93;2.65;;;;;;;;;;4894197;29;20150;-94
2022/12/19 00:29:34;;;;;;;6.50;2.38;;;;;;;;;;4896543;29;20040;-94
2022/12/19 00:31:59;;;;;;;6.28;2.08;;;;;;;;;;4893689;29;21107;-94
2022/12/19 00:34:25;;;;;;;6.30;2.20;;;;;;;;;;4893196;29;20116;-94
2022/12/19 00:36:53;;;;;;;6.65;2.10;;;;;;;;;;4899563;29;20063;-94
2022/12/19 00:39:18;;;;;;;6.80;2.13;;;;;;;;;;4896071;29;20037;-95
2022/12/19 00:41:43;;;;;;;7.50;2.70;;;;;;;;;;4898161;29;20032;-93
2022/12/19 00:44:10;;;;;;;6.80;2.30;;;;;;;;;;4894119;29;20293;-95
2022/12/19 00:46:36;;;;;;;6.60;2.25;;;;;;;;;;4897726;29;20130;-94
2022/12/19 00:49:02;;;;;;;5.90;2.00;;;;;;;;;;4894656;29;20075;-95
2022/12/19 00:51:29;;;;;;;5.32;1.40;;;;;;;;;;4901011;29;20028;-96
2022/12/19 00:53:55;;;;;;;5.70;1.52;;;;;;;;;;4897178;29;20044;-94
2022/12/19 00:56:28;;;;;;;4.63;1.30;;;;;;;;;;4898112;29;20794;-95
2022/12/19 00:58:53;;;;;;;5.13;1.48;;;;;;;;;;4898581;29;20064;-94
2022/12/19 01:01:24;;;;;;;6.18;1.40;;;;;;;;;;4899921;29;20109;-95
2022/12/19 01:03:49;;;;;;;5.30;1.30;;;;;;;;;;4898608;29;20028;-96
2022/12/19 01:06:15;;;;;;;5.05;1.30;;;;;;;;;;4901091;29;20609;-95
2022/12/19 01:08:40;;;;;;;4.93;1.25;;;;;;;;;;4902707;29;20028;-96
2022/12/19 01:11:06;;;;;;;5.28;1.33;;;;;;;;;;4895417;29;20070;-94
2022/12/19 01:13:32;;;;;;;6.38;1.92;;;;;;;;;;4894588;29;20032;-94
2022/12/19 01:16:05;;;;;;;6.40;2.00;;;;;;;;;;4892866;29;20028;-94
2022/12/19 01:18:30;;;;;;;8.13;2.33;;;;;;;;;;4902992;29;20040;-94
2022/12/19 01:20:58;;;;;;;7.30;2.55;;;;;;;;;;4908231;29;20032;-93
2022/12/19 01:23:23;;;;;;;8.60;2.90;;;;;;;;;;4902162;29;20034;-93
2022/12/19 01:25:51;;;;;;;10.77;2.97;;;;;;;;;;4905813;29;20030;-93
2022/12/19 01:28:17;;;;;;;14.95;3.60;;;;;;;;;;4900285;29;20187;-93
2022/12/19 01:30:42;;;;;;;13.15;3.38;;;;;;;;;;4907865;29;20115;-93
2022/12/19 01:33:09;;;;;;;21.63;4.03;;;;;;;;;;4903067;29;20055;-93
2022/12/19 01:35:35;;;;;;;16.27;3.78;;;;;;;;;;4907014;29;20028;-94
2022/12/19 01:38:00;;;;;;;17.30;4.05;;;;;;;;;;4898156;29;20032;-93
2022/12/19 01:40:25;;;;;;;24.02;4.20;;;;;;;;;;4900585;29;20039;-94
2022/12/19 01:42:53;;;;;;;26.17;4.28;;;;;;;;;;4903374;29;20492;-93
2022/12/19 01:45:23;;;;;;;14.35;3.88;;;;;;;;;;4898850;29;20544;-93
2022/12/19 01:48:04;;;;;;;11.85;3.50;;;;;;;;;;4901225;29;20492;-94
2022/12/19 01:50:37;;;;;;;40.03;5.38;;;;;;;;;;4896330;29;20125;-94
2022/12/19 01:53:05;;;;;;;31.42;4.68;;;;;;;;;;4899139;29;20025;-95
2022/12/19 01:55:31;;;;;;;18.83;3.83;;;;;;;;;;4911516;29;20033;-94
2022/12/19 01:57:58;;;;;;;14.05;4.13;;;;;;;;;;4903206;29;20111;-93
2022/12/19 02:00:23;;;;;;;13.52;3.45;;;;;;;;;;4901478;29;20493;-95
2022/12/19 02:02:54;;;;;;;26.92;4.72;;;;;;;;;;4905628;29;20047;-94
2022/12/19 02:05:19;;;;;;;24.58;5.45;;;;;;;;;;4900587;29;20053;-93
2022/12/19 02:07:45;;;;;;;33.58;5.30;;;;;;;;;;4909072;29;20102;-94
2022/12/19 02:10:10;;;;;;;64.15;7.10;;;;;;;;;;4896592;29;20097;-94
2022/12/19 02:12:36;;;;;;;67.03;7.60;;;;;;;;;;4912288;29;20431;-95
2022/12/19 02:15:03;;;;;;;101.63;8.98;;;;;;;;;;4907822;29;20484;-95
2022/12/19 02:17:33;;;;;;;65.32;6.38;;;;;;;;;;4905360;29;20028;-93
2022/12/19 02:20:01;;;;;;;87.78;7.82;;;;;;;;;;4905780;29;20123;-94
2022/12/19 02:22:48;;;;;;;99.55;9.35;;;;;;;;;;4911717;29;20147;-94
2022/12/19 02:25:16;;;;;;;174.30;15.07;;;;;;;;;;4910196;29;20032;-94
2022/12/19 02:27:41;;;;;;;256.88;17.42;;;;;;;;;;4907801;29;20033;-94
2022/12/19 02:30:09;;;;;;;266.60;19.30;;;;;;;;;;4907873;29;20024;-94
2022/12/19 02:32:41;;;;;;;292.63;19.33;;;;;;;;;;4922189;29;20055;-94
2022/12/19 02:35:06;;;;;;;286.15;19.08;;;;;;;;;;4901788;29;20699;-93
2022/12/19 02:37:40;;;;;;;248.18;18.98;;;;;;;;;;4907870;29;20147;-93
2022/12/19 02:40:05;;;;;;;;;;;;;;;;;;4902623;29;20032;-91
2022/12/19 02:42:32;;;;;;;210.50;15.65;;;;;;;;;;4921622;29;20066;-93
2022/12/19 02:44:58;;;;;;;256.85;15.80;;;;;;;;;;4907203;29;20168;-94
2022/12/19 02:47:24;;;;;;;262.02;20.50;;;;;;;;;;4907546;29;20106;-94
2022/12/19 02:49:49;;;;;;;188.95;17.20;;;;;;;;;;4903384;29;22036;-93
2022/12/19 02:52:17;;;;;;;252.77;18.55;;;;;;;;;;4897215;29;20035;-93
2022/12/19 02:54:43;;;;;;;110.50;10.15;;;;;;;;;;4899279;29;20032;-93
2022/12/19 02:57:17;;;;;;;87.97;9.43;;;;;;;;;;4899396;29;20027;-94
2022/12/19 02:59:49;;;;;;;157.38;11.90;;;;;;;;;;4897515;29;20583;-92
2022/12/19 03:04:44;;;;;;;139.27;11.95;;;;;;;;;;4911679;29;20040;-92
2022/12/19 03:07:16;;;;;;;106.57;9.18;;;;;;;;;;4903683;29;20052;-93
2022/12/19 03:09:57;;;;;;;136.90;10.97;;;;;;;;;;4907000;29;20059;-92
2022/12/19 03:12:35;;;;;;;161.43;10.93;;;;;;;;;;4921410;29;20318;-92
2022/12/19 03:15:00;;;;;;;51.92;6.80;;;;;;;;;;4905723;29;20024;-92
2022/12/19 03:17:26;;;;;;;19.88;4.63;;;;;;;;;;4905129;29;20028;-92
2022/12/19 03:19:52;;;;;;;21.60;5.07;;;;;;;;;;4904278;29;20945;-92
2022/12/19 03:22:17;;;;;;;25.67;4.50;;;;;;;;;;4917283;29;20039;-92
2022/12/19 03:24:42;;;;;;;43.95;4.78;;;;;;;;;;4918927;29;20032;-90
2022/12/19 03:27:10;;;;;;;17.13;4.15;;;;;;;;;;4904439;29;20038;-91
2022/12/19 03:29:39;;;;;;;16.33;4.00;;;;;;;;;;4915220;29;20131;-91
2022/12/19 03:32:06;;;;;;;18.35;5.03;;;;;;;;;;4903036;29;20052;-91
2022/12/19 03:34:45;;;;;;;11.50;4.32;;;;;;;;;;4901820;29;20024;-92
2022/12/19 03:37:13;;;;;;;20.38;4.50;;;;;;;;;;4898699;29;20072;-91
2022/12/19 03:39:39;;;;;;;13.57;4.53;;;;;;;;;;4910985;29;20028;-91
2022/12/19 03:44:50;;;;;;;21.40;4.55;;;;;;;;;;4899333;29;20051;-92
2022/12/19 03:47:21;;;;;;;51.20;8.45;;;;;;;;;;4900087;29;20032;-94
2022/12/19 03:49:47;;;;;;;46.95;7.05;;;;;;;;;;4900248;29;20092;-93
2022/12/19 03:52:15;;;;;;;36.95;6.53;;;;;;;;;;4900194;29;20496;-92
2022/12/19 03:54:44;;;;;;;28.08;6.32;;;;;;;;;;4900283;29;20024;-93
2022/12/19 03:57:20;;;;;;;18.42;5.80;;;;;;;;;;4901976;29;20026;-91
2022/12/19 03:59:50;;;;;;;12.27;4.65;;;;;;;;;;4901398;29;20024;-91
2022/12/19 04:02:17;;;;;;;9.10;3.70;;;;;;;;;;4898248;29;20171;-91
2022/12/19 04:04:47;;;;;;;11.70;3.85;;;;;;;;;;4918592;29;20423;-91
2022/12/19 04:07:13;;;;;;;11.20;3.88;;;;;;;;;;4901303;29;20123;-91
2022/12/19 04:09:41;;;;;;;10.15;3.85;;;;;;;;;;4902471;29;20051;-91
2022/12/19 04:12:26;;;;;;;11.57;4.38;;;;;;;;;;4900566;29;20032;-91
2022/12/19 04:14:52;;;;;;;16.48;4.38;;;;;;;;;;4911366;29;20036;-90
2022/12/19 04:17:39;;;;;;;11.68;4.20;;;;;;;;;;4910862;29;20035;-90
2022/12/19 04:20:06;;;;;;;12.77;3.92;;;;;;;;;;4911287;29;20038;-91
2022/12/19 04:22:38;;;;;;;10.77;4.20;;;;;;;;;;4897771;29;20028;-91
2022/12/19 04:25:09;;;;;;;13.40;4.22;;;;;;;;;;4895356;29;20053;-91
2022/12/19 04:27:36;;;;;;;10.57;4.00;;;;;;;;;;4901520;29;20074;-91
2022/12/19 04:30:02;;;;;;;9.00;3.90;;;;;;;;;;4919669;29;20068;-91
2022/12/19 04:32:28;;;;;;;10.30;4.00;;;;;;;;;;4908952;29;20035;-91
2022/12/19 04:34:53;;;;;;;9.32;4.10;;;;;;;;;;4907732;29;20020;-89
2022/12/19 04:37:19;;;;;;;11.43;4.47;;;;;;;;;;4910037;29;20028;-91
2022/12/19 04:39:44;;;;;;;8.93;3.70;;;;;;;;;;4907291;29;20174;-91
2022/12/19 04:42:09;;;;;;;10.38;3.20;;;;;;;;;;4922660;29;20080;-92
2022/12/19 04:44:35;;;;;;;8.43;3.00;;;;;;;;;;4908247;29;20028;-92
2022/12/19 04:47:00;;;;;;;7.82;3.08;;;;;;;;;;4925770;29;20020;-92
2022/12/19 04:49:25;;;;;;;8.60;2.92;;;;;;;;;;4909919;29;20035;-92
2022/12/19 04:51:51;;;;;;;9.05;3.35;;;;;;;;;;4924942;29;20028;-92
2022/12/19 04:54:16;;;;;;;8.38;3.15;;;;;;;;;;4923793;29;20062;-92
2022/12/19 04:56:41;;;;;;;9.48;3.38;;;;;;;;;;4911815;29;20469;-93
2022/12/19 04:59:07;;;;;;;11.15;3.38;;;;;;;;;;4924988;29;20040;-91
2022/12/19 05:01:32;;;;;;;9.10;3.92;;;;;;;;;;4905661;29;20038;-92
2022/12/19 05:03:57;;;;;;;9.63;3.40;;;;;;;;;;4919825;29;20047;-91
2022/12/19 05:06:23;;;;;;;9.27;3.27;;;;;;;;;;4902989;29;20070;-92
2022/12/19 05:08:52;;;;;;;9.90;3.42;;;;;;;;;;4905071;29;20941;-92
2022/12/19 05:14:35;;;;;;;9.25;3.60;;;;;;;;;;4906143;29;20023;-91
2022/12/19 05:17:00;;;;;;;10.30;3.60;;;;;;;;;;4897250;29;20051;-93
2022/12/19 05:19:25;;;;;;;10.63;4.00;;;;;;;;;;4896332;29;20032;-93
2022/12/19 05:21:50;;;;;;;8.88;3.85;;;;;;;;;;4897671;29;20351;-92
2022/12/19 05:27:32;;;;;;;7.35;3.25;;;;;;;;;;4902452;29;20285;-92
2022/12/19 05:29:58;;;;;;;11.27;3.10;;;;;;;;;;4918009;29;20371;-91
2022/12/19 05:32:23;;;;;;;7.60;2.88;;;;;;;;;;4905875;29;20088;-93
2022/12/19 05:34:48;;;;;;;8.82;3.50;;;;;;;;;;4921073;29;20024;-91
2022/12/19 05:37:14;;;;;;;8.68;3.60;;;;;;;;;;4920457;29;20578;-92
2022/12/19 05:39:39;;;;;;;9.77;3.45;;;;;;;;;;4905353;29;20032;-92
2022/12/19 05:42:04;;;;;;;8.63;3.35;;;;;;;;;;4905603;29;20035;-92
2022/12/19 05:44:30;;;;;;;7.68;2.65;;;;;;;;;;4908010;29;20494;-92
2022/12/19 05:46:55;;;;;;;10.13;2.92;;;;;;;;;;4919668;29;20039;-92
2022/12/19 05:49:20;;;;;;;9.43;2.60;;;;;;;;;;4905236;29;20032;-92
2022/12/19 05:51:46;;;;;;;8.65;2.67;;;;;;;;;;4910002;29;20035;-91
2022/12/19 05:54:11;;;;;;;10.02;2.67;;;;;;;;;;4895544;29;20798;-91
2022/12/19 05:56:36;;;;;;;10.45;2.90;;;;;;;;;;4894248;29;20449;-92
2022/12/19 05:59:01;;;;;;;9.27;3.00;;;;;;;;;;4895908;29;20066;-91
2022/12/19 06:01:27;;;;;;;8.75;2.33;;;;;;;;;;4900220;29;20435;-91
2022/12/19 06:03:56;;;;;;;6.72;2.00;;;;;;;;;;4898069;29;20928;-92
2022/12/19 06:06:23;;;;;;;6.38;1.83;;;;;;;;;;4894260;29;20032;-92
2022/12/19 06:08:56;;;;;;;4.40;1.40;;;;;;;;;;4898500;29;20088;-93
2022/12/19 06:11:21;;;;;;;42.10;4.68;;;;;;;;;;4913450;29;20079;-93
2022/12/19 06:13:47;;;;;;;6.95;1.73;;;;;;;;;;4911763;29;20043;-91
2022/12/19 06:16:13;;;;;;;8.38;1.85;;;;;;;;;;4898776;29;20028;-92
2022/12/19 06:18:40;;;;;;;8.93;2.33;;;;;;;;;;4902595;29;20036;-93
2022/12/19 06:21:08;;;;;;;7.57;2.28;;;;;;;;;;4895728;29;20084;-92
2022/12/19 06:23:35;;;;;;;11.70;3.13;;;;;;;;;;4899920;29;20110;-92
2022/12/19 06:26:01;;;;;;;7.78;2.58;;;;;;;;;;4895397;29;20024;-92
2022/12/19 06:28:27;;;;;;;8.30;2.20;;;;;;;;;;4914664;29;20547;-92
2022/12/19 06:30:57;;;;;;;7.20;1.65;;;;;;;;;;4899312;29;20028;-93
2022/12/19 06:33:24;;;;;;;21.73;2.75;;;;;;;;;;4898889;29;20066;-94
2022/12/19 06:36:00;;;;;;;8.40;1.92;;;;;;;;;;4910995;29;20040;-92
2022/12/19 06:38:35;;;;;;;6.90;1.70;;;;;;;;;;4916222;29;20579;-93
2022/12/19 06:43:48;;;;;;;5.18;1.48;;;;;;;;;;4900842;29;20099;-93
2022/12/19 06:46:13;;;;;;;7.68;1.60;;;;;;;;;;4896592;29;20028;-93
2022/12/19 06:48:39;;;;;;;9.40;1.60;;;;;;;;;;4898918;29;20055;-93
2022/12/19 06:51:04;;;;;;;6.32;1.50;;;;;;;;;;4910075;29;20028;-92
2022/12/19 06:53:31;;;;;;;6.72;1.50;;;;;;;;;;4899385;29;20032;-93
2022/12/19 06:55:57;;;;;;;10.65;1.88;;;;;;;;;;4916397;29;20123;-93
2022/12/19 06:58:23;;;;;;;9.35;2.55;;;;;;;;;;4917166;29;20099;-91
2022/12/19 07:00:49;;;;;;;7.93;2.30;;;;;;;;;;4908374;29;20175;-93
2022/12/19 07:03:16;;;;;;;8.65;2.17;;;;;;;;;;4908498;29;20622;-92
2022/12/19 07:05:51;;;;;;;12.80;2.58;;;;;;;;;;4913158;29;20043;-94
2022/12/19 07:08:16;;;;;;;12.93;2.20;;;;;;;;;;4910395;29;20051;-94
2022/12/19 07:10:42;;;;;;;10.00;2.00;;;;;;;;;;4905995;29;20207;-94
2022/12/19 07:13:07;;;;;;;7.38;2.10;;;;;;;;;;4900192;29;20039;-94
2022/12/19 07:15:33;;;;;;;9.35;2.10;;;;;;;;;;4916271;29;20436;-93
2022/12/19 07:17:59;;;;;;;7.95;1.83;;;;;;;;;;4907813;29;20557;-94
2022/12/19 07:20:24;;;;;;;14.05;2.05;;;;;;;;;;4899034;29;20032;-94
2022/12/19 07:22:50;;;;;;;6.50;2.03;;;;;;;;;;4904119;29;20043;-94
2022/12/19 07:25:16;;;;;;;16.42;2.30;;;;;;;;;;4900456;29;20031;-95
2022/12/19 07:27:42;;;;;;;8.00;2.08;;;;;;;;;;4900333;29;20040;-95
2022/12/19 07:30:07;;;;;;;7.82;2.17;;;;;;;;;;4917726;29;20028;-94
2022/12/19 07:32:33;;;;;;;9.57;2.50;;;;;;;;;;4901641;29;20523;-94
2022/12/19 07:34:58;;;;;;;8.73;2.38;;;;;;;;;;4902855;29;20131;-94
2022/12/19 07:37:23;;;;;;;13.85;3.00;;;;;;;;;;4900505;29;20127;-94
2022/12/19 07:39:49;;;;;;;18.95;3.40;;;;;;;;;;4904312;29;20799;-94
2022/12/19 07:42:14;;;;;;;10.73;2.70;;;;;;;;;;4904664;29;20099;-94
2022/12/19 07:44:39;;;;;;;11.23;2.88;;;;;;;;;;4902611;29;20046;-95
2022/12/19 07:47:07;;;;;;;8.05;2.20;;;;;;;;;;4903221;29;20094;-95
2022/12/19 07:49:32;;;;;;;5.65;1.70;;;;;;;;;;4919916;29;20452;-95
2022/12/19 07:52:00;;;;;;;7.80;2.17;;;;;;;;;;4904118;29;20028;-93
2022/12/19 07:54:29;;;;;;;15.32;2.60;;;;;;;;;;4904081;29;20099;-94
2022/12/19 07:56:55;;;;;;;6.22;2.05;;;;;;;;;;4915762;29;20028;-94
2022/12/19 07:59:20;;;;;;;8.43;2.65;;;;;;;;;;4907827;29;20028;-94
2022/12/19 08:01:46;;;;;;;7.68;2.83;;;;;;;;;;4912407;29;20031;-96
2022/12/19 08:04:14;;;;;;;7.20;2.92;;;;;;;;;;4913191;29;20071;-94
2022/12/19 08:06:39;;;;;;;7.65;3.05;;;;;;;;;;4908192;29;20126;-95
2022/12/19 08:09:05;;;;;;;36.72;3.53;;;;;;;;;;4930005;29;20886;-95
2022/12/19 08:11:30;;;;;;;6.50;1.75;;;;;;;;;;4912588;29;20325;-96
2022/12/19 08:13:56;;;;;;;9.50;2.13;;;;;;;;;;4914675;29;20123;-94
2022/12/19 08:16:31;;;;;;;6.75;1.98;;;;;;;;;;4910972;29;20035;-95
2022/12/19 08:18:56;;;;;;;10.68;2.80;;;;;;;;;;4925668;29;20035;-96
2022/12/19 08:21:23;;;;;;;13.75;3.55;;;;;;;;;;4910631;29;20455;-93
2022/12/19 08:23:48;;;;;;;23.52;4.20;;;;;;;;;;4908618;29;20028;-94
2022/12/19 08:26:15;;;;;;;12.13;4.13;;;;;;;;;;4924284;29;20163;-94
2022/12/19 08:28:46;;;;;;;15.75;3.90;;;;;;;;;;4917799;29;20050;-94
2022/12/19 08:31:13;;;;;;;9.02;3.08;;;;;;;;;;4905471;29;20040;-95
2022/12/19 08:33:39;;;;;;;12.15;3.75;;;;;;;;;;4907840;29;20020;-94
2022/12/19 08:36:07;;;;;;;13.88;3.75;;;;;;;;;;4902660;29;20031;-93
2022/12/19 08:38:33;;;;;;;10.65;4.18;;;;;;;;;;4919231;29;20013;-94
2022/12/19 08:40:59;;;;;;;11.32;3.55;;;;;;;;;;4909030;29;20032;-93
2022/12/19 08:43:25;;;;;;;14.48;3.60;;;;;;;;;;4907043;29;20020;-93
2022/12/19 08:45:50;;;;;;;12.80;3.40;;;;;;;;;;4905916;29;20083;-93
2022/12/19 08:48:16;;;;;;;9.13;2.88;;;;;;;;;;4923297;29;20384;-96
2022/12/19 08:51:08;;;;;;;15.00;3.20;;;;;;;;;;4926194;29;20531;-94
2022/12/19 08:53:41;;;;;;;10.90;2.70;;;;;;;;;;4921676;29;20566;-95
2022/12/19 08:56:14;;;;;;;8.80;2.80;;;;;;;;;;4923219;29;20029;-95
2022/12/19 08:58:43;;;;;;;;;;;;;;;;;;4905997;29;20028;-94
2022/12/19 09:01:13;;;;;;;10.93;3.55;;;;;;;;;;4908009;29;19922;-92
2022/12/19 09:03:38;;;;;;;10.07;3.42;;;;;;;;;;4905692;29;20614;-92
2022/12/19 09:06:05;;;;;;;11.98;3.80;;;;;;;;;;4921523;29;20135;-94
2022/12/19 09:08:34;;;;;;;12.35;3.55;;;;;;;;;;4904345;29;20025;-93
2022/12/19 09:11:17;;;;;;;11.18;3.70;;;;;;;;;;4921546;29;20024;-93
2022/12/19 09:13:43;;;;;;;10.32;3.25;;;;;;;;;;4903793;29;20082;-92
2022/12/19 09:16:09;;;;;;;14.80;3.65;;;;;;;;;;4905914;29;20397;-92
2022/12/19 09:18:34;;;;;;;11.82;3.20;;;;;;;;;;4922059;29;20143;-93
2022/12/19 09:21:01;;;;;;;10.68;3.28;;;;;;;;;;4922319;29;21429;-92
2022/12/19 09:23:27;;;;;;;11.10;3.45;;;;;;;;;;4911085;29;20032;-93
2022/12/19 09:25:54;;;;;;;12.68;3.22;;;;;;;;;;4922994;29;20083;-92
2022/12/19 09:28:29;;;;;;;17.92;3.90;;;;;;;;;;4932734;29;20035;-91
2022/12/19 09:30:56;;;;;;;9.60;2.72;;;;;;;;;;4931342;29;20094;-93
2022/12/19 09:33:21;;;;;;;8.40;2.47;;;;;;;;;;4915077;29;20027;-94
2022/12/19 09:35:51;;;;;;;14.90;3.00;;;;;;;;;;4923415;29;20429;-94
2022/12/19 09:38:18;;;;;;;9.32;2.90;;;;;;;;;;4917955;29;20024;-93
2022/12/19 09:41:02;;;;;;;11.75;2.90;;;;;;;;;;4925529;29;20527;-95
2022/12/19 09:43:41;;;;;;;11.32;2.38;;;;;;;;;;4914949;29;20039;-93
2022/12/19 09:46:14;;;;;;;8.65;2.60;;;;;;;;;;4929221;29;20034;-92
2022/12/19 09:48:42;;;;;;;11.43;1.92;;;;;;;;;;4926052;29;20039;-92
2022/12/19 09:51:11;;;;;;;10.23;2.30;;;;;;;;;;4909115;29;20056;-94
2022/12/19 09:54:08;;;;;;;9.18;2.40;;;;;;;;;;4908032;29;20381;-93
2022/12/19 09:56:36;;;;;;;9.27;2.50;;;;;;;;;;4888599;29;20059;-92
2022/12/19 09:59:05;;;;;;;12.80;2.53;;;;;;;;;;4904396;29;20025;-92
2022/12/19 10:01:34;;;;;;;9.65;2.38;;;;;;;;;;4899863;29;20556;-91
2022/12/19 10:04:11;;;;;;;9.30;2.70;;;;;;;;;;4903706;29;20040;-93
2022/12/19 10:06:37;;;;;;;8.70;2.20;;;;;;;;;;4919306;29;20115;-93
2022/12/19 10:09:03;;;;;;;11.55;2.42;;;;;;;;;;4902349;29;20031;-93
2022/12/19 10:11:47;;;;;;;12.13;2.58;;;;;;;;;;4901917;29;20032;-94
2022/12/19 10:14:28;;;;;;;10.30;2.40;;;;;;;;;;4903706;29;20784;-92
2022/12/19 10:17:04;;;;;;;9.80;2.35;;;;;;;;;;4904790;29;20032;-92
2022/12/19 10:19:35;;;;;;;9.35;2.40;;;;;;;;;;4914826;29;20028;-92
2022/12/19 10:22:08;;;;;;;10.68;2.22;;;;;;;;;;4899333;29;20024;-93
2022/12/19 10:24:52;;;;;;;8.38;2.45;;;;;;;;;;4906411;29;20029;-92
2022/12/19 10:27:21;;;;;;;11.45;2.10;;;;;;;;;;4904469;29;20036;-93
2022/12/19 10:29:52;;;;;;;7.05;1.80;;;;;;;;;;4906304;29;20967;-93
2022/12/19 10:32:29;;;;;;;8.57;1.98;;;;;;;;;;4921874;29;20027;-92
2022/12/19 10:34:54;;;;;;;8.90;1.60;;;;;;;;;;4922276;29;20029;-93
2022/12/19 10:37:35;;;;;;;13.02;1.95;;;;;;;;;;4908333;29;20043;-93
2022/12/19 10:40:00;;;;;;;7.78;1.70;;;;;;;;;;4907256;29;20036;-92
2022/12/19 10:42:25;;;;;;;15.88;2.80;;;;;;;;;;4905228;29;20032;-92
2022/12/19 10:44:52;;;;;;;9.80;2.63;;;;;;;;;;4900524;29;20710;-93
2022/12/19 10:47:17;;;;;;;10.10;2.42;;;;;;;;;;4916784;29;20064;-91
2022/12/19 10:49:43;;;;;;;18.90;3.13;;;;;;;;;;4899629;29;20119;-92
2022/12/19 10:52:10;;;;;;;15.07;3.22;;;;;;;;;;4896660;29;20147;-91
2022/12/19 10:54:44;;;;;;;14.05;3.05;;;;;;;;;;4898884;29;20866;-92
2022/12/19 10:57:21;;;;;;;16.13;2.83;;;;;;;;;;4899324;29;20092;-92
2022/12/19 11:00:12;;;;;;;12.68;2.65;;;;;;;;;;4904891;29;20034;-92
2022/12/19 11:02:38;;;;;;;13.60;2.75;;;;;;;;;;4916698;29;20099;-92
2022/12/19 11:05:23;;;;;;;13.13;2.70;;;;;;;;;;4918981;29;20032;-92
2022/12/19 11:08:03;;;;;;;14.48;2.80;;;;;;;;;;4889431;29;20045;-91
2022/12/19 11:10:34;;;;;;;13.00;2.88;;;;;;;;;;4909663;29;20107;-92
2022/12/19 11:12:59;;;;;;;12.82;2.55;;;;;;;;;;4908208;29;20161;-91
2022/12/19 11:15:25;;;;;;;19.77;3.30;;;;;;;;;;4909944;29;20037;-90
2022/12/19 11:17:50;;;;;;;14.38;2.85;;;;;;;;;;4906977;29;20047;-91
2022/12/19 11:20:20;;;;;;;12.10;2.63;;;;;;;;;;4902991;29;20522;-90
2022/12/19 11:22:55;;;;;;;17.63;2.60;;;;;;;;;;4903972;29;20051;-90
2022/12/19 11:25:21;;;;;;;11.63;2.28;;;;;;;;;;4904670;29;20024;-90
2022/12/19 11:27:49;;;;;;;12.98;2.58;;;;;;;;;;4899476;29;20042;-89
2022/12/19 11:30:14;;;;;;;12.82;2.35;;;;;;;;;;4901947;29;20610;-91
2022/12/19 11:32:41;;;;;;;12.27;2.58;;;;;;;;;;4904493;29;20147;-89
2022/12/19 11:35:23;;;;;;;7.88;1.92;;;;;;;;;;4899793;29;20035;-89
2022/12/19 11:37:51;;;;;;;10.55;2.47;;;;;;;;;;4899791;29;20024;-89
2022/12/19 11:40:22;;;;;;;14.27;2.08;;;;;;;;;;4903919;29;20448;-89
2022/12/19 11:42:57;;;;;;;9.88;2.05;;;;;;;;;;4900507;29;20091;-89
2022/12/19 11:45:31;;;;;;;7.65;1.63;;;;;;;;;;4908947;29;20068;-90
2022/12/19 11:47:59;;;;;;;11.18;1.77;;;;;;;;;;4915135;29;20425;-90
2022/12/19 11:50:37;;;;;;;8.68;1.70;;;;;;;;;;4900295;29;20044;-89
2022/12/19 11:53:14;;;;;;;9.23;2.08;;;;;;;;;;4917965;29;20024;-90
2022/12/19 11:55:45;;;;;;;6.90;1.70;;;;;;;;;;4910455;29;20036;-90
2022/12/19 11:58:11;;;;;;;8.65;1.50;;;;;;;;;;4898622;29;20028;-90
2022/12/19 12:00:41;;;;;;;7.72;1.75;;;;;;;;;;4904956;29;20031;-90
2022/12/19 12:03:21;;;;;;;7.60;1.80;;;;;;;;;;4907277;29;20033;-90
2022/12/19 12:05:47;;;;;;;7.38;1.35;;;;;;;;;;4904682;29;20031;-89
2022/12/19 12:08:21;;;;;;;9.70;1.52;;;;;;;;;;4904100;29;20115;-90
2022/12/19 12:10:55;;;;;;;10.30;1.50;;;;;;;;;;4906729;29;20496;-90
2022/12/19 12:13:36;;;;;;;6.88;1.50;;;;;;;;;;4905325;29;20039;-89
2022/12/19 12:16:04;;;;;;;10.93;1.33;;;;;;;;;;4907773;29;20095;-90
2022/12/19 12:18:34;;;;;;;6.75;1.27;;;;;;;;;;4908832;29;20141;-90
2022/12/19 12:21:02;;;;;;;8.98;1.30;;;;;;;;;;4906532;29;20036;-89
2022/12/19 12:23:36;;;;;;;6.45;1.15;;;;;;;;;;4920719;29;20039;-89
2022/12/19 12:26:17;;;;;;;7.05;1.50;;;;;;;;;;4921803;29;20056;-89
2022/12/19 12:29:01;;;;;;;10.48;1.67;;;;;;;;;;4924508;29;20027;-89
2022/12/19 12:31:45;;;;;;;8.68;1.40;;;;;;;;;;4910078;29;20052;-90
2022/12/19 12:34:23;;;;;;;5.53;1.48;;;;;;;;;;4907123;29;20164;-90
2022/12/19 12:37:09;;;;;;;6.82;1.60;;;;;;;;;;4923970;29;20044;-89
2022/12/19 12:39:41;;;;;;;9.55;1.60;;;;;;;;;;4924443;29;20520;-89
2022/12/19 12:42:23;;;;;;;12.95;2.05;;;;;;;;;;4909014;29;20028;-90
2022/12/19 12:44:51;;;;;;;6.20;1.48;;;;;;;;;;4907341;29;20431;-90
2022/12/19 12:47:19;;;;;;;8.40;1.63;;;;;;;;;;4921574;29;20028;-90
2022/12/19 12:49:54;;;;;;;8.07;1.70;;;;;;;;;;4923074;29;20147;-90
2022/12/19 12:52:28;;;;;;;8.73;1.75;;;;;;;;;;4921958;29;20040;-90
2022/12/19 12:54:54;;;;;;;8.38;1.50;;;;;;;;;;4905490;29;20031;-90
2022/12/19 12:57:32;;;;;;;9.02;1.35;;;;;;;;;;4908653;29;20025;-89
2022/12/19 13:00:20;;;;;;;7.43;1.30;;;;;;;;;;4908024;29;20031;-91
2022/12/19 13:02:54;;;;;;;9.68;1.73;;;;;;;;;;4902445;29;20036;-90
2022/12/19 13:05:33;;;;;;;8.95;1.42;;;;;;;;;;4915290;29;20099;-90
2022/12/19 13:07:58;;;;;;;9.65;1.80;;;;;;;;;;4924799;29;20070;-90
2022/12/19 13:10:25;;;;;;;5.93;1.30;;;;;;;;;;4898048;29;20052;-90
2022/12/19 13:13:08;;;;;;;7.78;1.40;;;;;;;;;;4898274;29;20479;-91
2022/12/19 13:15:43;;;;;;;7.72;1.70;;;;;;;;;;4905309;29;20392;-91
2022/12/19 13:18:23;;;;;;;8.35;1.67;;;;;;;;;;4909629;29;20032;-91
2022/12/19 13:20:48;;;;;;;7.97;1.55;;;;;;;;;;4910642;29;20035;-90
2022/12/19 13:23:22;;;;;;;8.95;1.60;;;;;;;;;;4925079;29;20036;-90
2022/12/19 13:25:47;;;;;;;;;;;;;;;;;;4906310;29;20877;-91
2022/12/19 13:28:32;;;;;;;8.40;1.60;;;;;;;;;;4907885;29;20360;-89
2022/12/19 13:31:04;;;;;;;11.02;1.58;;;;;;;;;;4914546;29;20107;-90
2022/12/19 13:33:48;;;;;;;7.30;1.35;;;;;;;;;;4905285;29;20024;-90
2022/12/19 13:36:32;;;;;;;8.02;1.52;;;;;;;;;;4901328;29;21762;-91
2022/12/19 13:39:00;;;;;;;11.55;1.83;;;;;;;;;;4902822;29;20040;-91
2022/12/19 13:44:10;;;;;;;8.48;1.70;;;;;;;;;;4902755;29;20129;-91
2022/12/19 13:46:38;;;;;;;8.85;1.40;;;;;;;;;;4903472;29;20500;-92
2022/12/19 13:49:13;;;;;;;6.63;1.25;;;;;;;;;;4902746;29;20032;-92
2022/12/19 13:51:50;;;;;;;9.90;1.73;;;;;;;;;;4906138;29;20020;-90
2022/12/19 13:54:31;;;;;;;7.97;1.45;;;;;;;;;;4901922;29;20131;-91
2022/12/19 13:57:00;;;;;;;8.15;1.40;;;;;;;;;;4903914;29;20028;-91
2022/12/19 13:59:29;;;;;;;10.93;1.63;;;;;;;;;;4918083;29;20032;-91
2022/12/19 14:01:55;;;;;;;8.65;1.58;;;;;;;;;;4906606;29;20107;-91
2022/12/19 14:04:28;;;;;;;8.50;1.42;;;;;;;;;;4909254;29;20457;-91
2022/12/19 14:07:01;;;;;;;7.90;1.25;;;;;;;;;;4920185;29;20035;-91
2022/12/19 14:09:26;;;;;;;8.30;1.50;;;;;;;;;;4908368;29;20033;-90
2022/12/19 14:11:53;;;;;;;9.57;2.10;;;;;;;;;;4905234;29;20027;-91
2022/12/19 14:17:06;;;;;;;8.60;1.85;;;;;;;;;;4909561;29;20050;-90
2022/12/19 14:19:36;;;;;;;6.32;1.33;;;;;;;;;;4904263;29;20042;-89
2022/12/19 14:22:19;;;;;;;10.13;1.80;;;;;;;;;;4908732;29;20261;-90
2022/12/19 14:24:54;;;;;;;6.37;1.40;;;;;;;;;;4914578;29;20090;-90
2022/12/19 14:27:25;;;;;;;9.75;1.73;;;;;;;;;;4922759;29;20608;-91
2022/12/19 14:29:53;;;;;;;6.70;1.50;;;;;;;;;;4926818;29;20915;-90
2022/12/19 14:32:19;;;;;;;7.22;1.40;;;;;;;;;;4910955;29;20035;-90
2022/12/19 14:34:46;;;;;;;7.68;1.80;;;;;;;;;;4912517;29;20032;-89
2022/12/19 14:37:26;;;;;;;9.70;1.50;;;;;;;;;;4909154;29;20063;-90
2022/12/19 14:39:56;;;;;;;11.32;1.95;;;;;;;;;;4909585;29;20028;-90
2022/12/19 14:45:30;;;;;;;7.55;1.33;;;;;;;;;;4908784;29;20110;-91
2022/12/19 14:47:55;;;;;;;11.45;1.73;;;;;;;;;;4912523;29;20039;-90
2022/12/19 14:50:31;;;;;;;13.15;1.92;;;;;;;;;;4910338;29;20040;-90
2022/12/19 14:53:07;;;;;;;9.27;2.03;;;;;;;;;;4922552;29;20058;-90
2022/12/19 14:55:33;;;;;;;9.07;1.70;;;;;;;;;;4922601;29;20040;-90
2022/12/19 14:58:09;;;;;;;10.88;1.90;;;;;;;;;;4909257;29;20035;-90
2022/12/19 15:00:42;;;;;;;10.80;1.73;;;;;;;;;;4906593;29;20028;-90
2022/12/19 15:03:07;;;;;;;;;;;;;;;;;;4907535;29;20047;-90
2022/12/19 15:05:32;;;;;;;7.93;1.40;;;;;;;;;;4906679;29;20271;-90
2022/12/19 15:07:58;;;;;;;7.25;1.48;;;;;;;;;;4909271;29;20024;-91
2022/12/19 15:10:25;;;;;;;9.48;1.40;;;;;;;;;;4909811;29;20032;-91